Time;durP1;ratioP1;P1;durP2;ratioP2;P2;SDS_P1;SDS_P2;PMS_P1;PMS_P2;Temp;Humidity;BMP_temperature;BMP_pressure;BME280_temperature;BME280_humidity;BME280_pressure;Samples;Min_cycle;Max_cycle;Signal;HPM_P1;HPM_P2
2024/04/19 00:02:39;;;;;;;2.47;1.60;;;10.00;84.70;;;;;;5482229;26;20030;-71
2024/04/19 00:05:25;;;;;;;3.47;2.08;;;10.00;84.80;;;;;;5471415;26;19994;-70
2024/04/19 00:08:11;;;;;;;3.60;1.85;;;10.00;85.00;;;;;;5458880;26;20005;-71
2024/04/19 00:10:57;;;;;;;2.28;1.58;;;10.00;85.20;;;;;;5468238;26;20538;-71
2024/04/19 00:13:43;;;;;;;3.95;2.13;;;10.00;85.40;;;;;;5479098;26;20403;-71
2024/04/19 00:16:29;;;;;;;2.88;1.73;;;10.00;85.50;;;;;;5477538;26;20600;-71
2024/04/19 00:19:15;;;;;;;3.47;1.70;;;10.00;85.70;;;;;;5474932;26;20005;-72
2024/04/19 00:22:01;;;;;;;2.58;1.55;;;10.00;85.80;;;;;;5486265;26;20002;-71
2024/04/19 00:24:47;;;;;;;3.40;1.83;;;10.00;86.00;;;;;;5462844;26;20005;-72
2024/04/19 00:27:33;;;;;;;2.88;1.90;;;10.00;86.10;;;;;;5480813;26;20088;-71
2024/04/19 00:30:19;;;;;;;2.42;1.58;;;10.10;86.30;;;;;;5482616;26;20002;-70
2024/04/19 00:33:05;;;;;;;3.45;2.03;;;10.10;86.50;;;;;;5447663;26;20430;-71
2024/04/19 00:35:51;;;;;;;2.58;1.52;;;10.00;86.40;;;;;;5469136;26;20040;-71
2024/04/19 00:38:37;;;;;;;2.00;1.45;;;10.00;86.50;;;;;;5480069;26;20006;-71
2024/04/19 00:41:23;;;;;;;3.28;1.50;;;10.10;86.50;;;;;;5477691;26;20446;-71
2024/04/19 00:44:08;;;;;;;2.63;1.80;;;10.00;86.60;;;;;;5485109;26;19994;-71
2024/04/19 00:46:54;;;;;;;3.92;1.98;;;10.10;86.60;;;;;;5478203;26;20482;-71
2024/04/19 00:49:41;;;;;;;2.47;1.55;;;10.10;86.70;;;;;;5472293;26;20082;-74
2024/04/19 00:52:28;;;;;;;3.40;1.98;;;10.10;87.20;;;;;;5480020;26;19998;-75
2024/04/19 00:55:14;;;;;;;3.28;2.03;;;10.10;86.70;;;;;;5485149;26;20002;-75
2024/04/19 00:58:00;;;;;;;4.80;2.13;;;10.10;86.80;;;;;;5471171;26;20565;-74
2024/04/19 01:00:46;;;;;;;4.18;1.77;;;10.00;86.80;;;;;;5486216;26;20001;-74
2024/04/19 01:03:32;;;;;;;5.47;1.88;;;10.00;86.90;;;;;;5451918;26;20018;-71
2024/04/19 01:06:18;;;;;;;3.47;1.90;;;10.10;86.90;;;;;;5445686;26;19994;-71
2024/04/19 01:09:04;;;;;;;3.55;1.90;;;10.10;86.90;;;;;;5476067;26;20526;-71
2024/04/19 01:11:50;;;;;;;6.72;1.60;;;10.10;87.40;;;;;;5473381;26;20097;-71
2024/04/19 01:14:36;;;;;;;5.57;2.00;;;10.00;86.80;;;;;;5446064;26;20007;-71
2024/04/19 01:17:22;;;;;;;3.92;1.77;;;10.00;87.00;;;;;;5487082;26;20065;-70
2024/04/19 01:20:08;;;;;;;2.85;1.58;;;10.00;87.10;;;;;;5478436;26;20010;-71
2024/04/19 01:22:55;;;;;;;2.65;1.70;;;10.00;87.10;;;;;;5487142;26;20302;-70
2024/04/19 01:25:42;;;;;;;4.47;1.90;;;10.00;87.00;;;;;;5481021;26;20072;-69
2024/04/19 01:28:28;;;;;;;2.47;1.52;;;10.00;87.00;;;;;;5489529;26;19998;-69
2024/04/19 01:31:14;;;;;;;2.47;1.60;;;10.00;87.10;;;;;;5468835;26;20074;-69
2024/04/19 01:34:00;;;;;;;4.15;2.00;;;10.00;87.10;;;;;;5479976;26;20442;-69
2024/04/19 01:36:46;;;;;;;3.72;1.75;;;10.00;87.10;;;;;;5479131;26;20100;-69
2024/04/19 01:39:32;;;;;;;3.38;1.50;;;10.00;87.00;;;;;;5471954;26;20009;-69
2024/04/19 01:42:18;;;;;;;3.05;1.75;;;10.00;87.10;;;;;;5482992;26;20026;-70
2024/04/19 01:45:04;;;;;;;3.40;1.83;;;9.90;87.10;;;;;;5482087;26;20002;-70
2024/04/19 01:47:50;;;;;;;3.33;1.70;;;9.90;87.20;;;;;;5475591;26;20487;-70
2024/04/19 01:50:36;;;;;;;3.38;1.95;;;9.90;87.20;;;;;;5467021;26;20070;-70
2024/04/19 01:53:22;;;;;;;4.45;1.58;;;9.90;87.30;;;;;;5474663;26;20397;-70
2024/04/19 01:56:08;;;;;;;4.13;1.77;;;9.90;87.30;;;;;;5480991;26;19998;-70
2024/04/19 01:58:54;;;;;;;3.10;2.00;;;9.90;87.50;;;;;;5481759;26;20475;-70
2024/04/19 02:01:39;;;;;;;7.65;1.90;;;9.80;87.50;;;;;;5479657;26;19994;-70
2024/04/19 02:04:25;;;;;;;4.15;1.63;;;9.80;87.80;;;;;;5475374;26;20010;-70
2024/04/19 02:07:11;;;;;;;1.92;1.40;;;9.80;87.70;;;;;;5458576;26;19995;-70
2024/04/19 02:09:58;;;;;;;3.20;1.80;;;9.70;87.90;;;;;;5478054;26;20003;-70
2024/04/19 02:12:44;;;;;;;5.70;1.77;;;9.70;88.10;;;;;;5475539;26;20030;-70
2024/04/19 02:15:29;;;;;;;4.30;2.22;;;9.70;88.20;;;;;;5469749;26;20002;-71
2024/04/19 02:18:15;;;;;;;5.07;2.75;;;9.60;88.40;;;;;;5484637;26;20017;-70
2024/04/19 02:21:01;;;;;;;3.58;2.03;;;9.70;88.60;;;;;;5482418;26;20002;-70
2024/04/19 02:23:47;;;;;;;6.95;2.40;;;9.60;88.60;;;;;;5479638;26;20002;-70
2024/04/19 02:26:34;;;;;;;4.13;2.08;;;9.60;88.80;;;;;;5483586;26;19990;-70
2024/04/19 02:32:25;;;;;;;5.53;2.38;;;9.50;89.10;;;;;;5484736;26;20006;-70
2024/04/19 02:35:10;;;;;;;3.53;1.67;;;9.60;89.20;;;;;;5468839;26;20019;-70
2024/04/19 02:37:56;;;;;;;2.55;1.60;;;9.60;89.30;;;;;;5480546;26;20005;-70
2024/04/19 02:40:42;;;;;;;3.55;1.80;;;9.50;89.40;;;;;;5465108;26;19995;-70
2024/04/19 02:43:29;;;;;;;4.68;2.13;;;9.50;89.50;;;;;;5481643;26;19998;-70
2024/04/19 02:46:16;;;;;;;2.28;1.77;;;9.50;89.70;;;;;;5477186;26;20002;-70
2024/04/19 02:49:02;;;;;;;2.35;1.88;;;9.50;89.80;;;;;;5485734;26;20027;-70
2024/04/19 02:51:47;;;;;;;3.42;2.13;;;9.50;90.00;;;;;;5477590;26;19995;-70
2024/04/19 02:54:33;;;;;;;2.65;1.70;;;9.50;90.00;;;;;;5482746;26;19994;-71
2024/04/19 02:57:19;;;;;;;3.85;1.92;;;9.40;90.10;;;;;;5469645;26;20315;-71
2024/04/19 03:00:06;;;;;;;2.33;1.40;;;9.40;90.10;;;;;;5486247;26;20003;-70
2024/04/19 03:02:52;;;;;;;3.42;2.13;;;9.40;90.20;;;;;;5484952;26;22608;-69
2024/04/19 03:05:38;;;;;;;3.38;1.73;;;9.30;90.20;;;;;;5452092;26;19998;-70
2024/04/19 03:08:26;;;;;;;4.07;2.03;;;9.40;90.30;;;;;;5482128;26;20460;-69
2024/04/19 03:11:12;;;;;;;3.15;2.30;;;9.40;90.40;;;;;;5487005;26;20001;-70
2024/04/19 03:13:57;;;;;;;3.45;1.77;;;9.30;90.40;;;;;;5469494;26;20003;-70
2024/04/19 03:16:43;;;;;;;6.70;2.42;;;9.30;90.40;;;;;;5482003;26;20002;-69
2024/04/19 03:19:29;;;;;;;3.78;2.05;;;9.30;90.50;;;;;;5475489;26;20330;-69
2024/04/19 03:22:16;;;;;;;4.45;2.28;;;9.30;90.60;;;;;;5457722;26;19994;-69
2024/04/19 03:25:03;;;;;;;4.72;1.88;;;9.30;90.60;;;;;;5461204;26;20006;-70
2024/04/19 03:27:50;;;;;;;4.30;1.90;;;9.20;90.60;;;;;;5485871;26;19991;-70
2024/04/19 03:30:36;;;;;;;3.85;2.25;;;9.20;90.70;;;;;;5478451;26;19995;-70
2024/04/19 03:33:22;;;;;;;4.13;2.00;;;9.20;90.60;;;;;;5437922;26;20075;-70
2024/04/19 03:36:08;;;;;;;6.45;1.70;;;9.20;90.70;;;;;;5476702;26;20005;-70
2024/04/19 03:38:54;;;;;;;4.18;2.28;;;9.20;90.70;;;;;;5456725;26;19991;-70
2024/04/19 03:41:42;;;;;;;4.40;1.83;;;9.20;90.70;;;;;;5484996;26;19994;-70
2024/04/19 03:47:33;;;;;;;4.32;1.98;;;9.20;90.70;;;;;;5480746;26;20002;-70
2024/04/19 03:50:19;;;;;;;6.55;2.70;;;9.20;90.70;;;;;;5462747;26;19994;-70
2024/04/19 03:53:05;;;;;;;3.03;2.08;;;9.20;90.70;;;;;;5485511;26;20024;-70
2024/04/19 03:55:52;;;;;;;2.63;1.88;;;9.20;90.70;;;;;;5483718;26;20075;-70
2024/04/19 03:58:38;;;;;;;3.30;2.10;;;9.20;90.70;;;;;;5468772;26;19999;-70
2024/04/19 04:01:24;;;;;;;3.42;1.70;;;9.30;90.80;;;;;;5474726;26;19998;-71
2024/04/19 04:04:09;;;;;;;2.40;1.75;;;9.30;90.70;;;;;;5468035;26;20493;-72
2024/04/19 04:06:55;;;;;;;2.45;1.80;;;9.30;90.80;;;;;;5461882;26;20331;-70
2024/04/19 04:09:41;;;;;;;4.90;2.67;;;9.20;90.80;;;;;;5482968;26;20310;-69
2024/04/19 04:12:29;;;;;;;4.40;2.22;;;9.30;90.80;;;;;;5479721;26;19998;-69
2024/04/19 04:15:15;;;;;;;7.55;2.00;;;9.30;90.80;;;;;;5484260;26;19994;-72
2024/04/19 04:18:01;;;;;;;4.55;1.98;;;9.30;90.80;;;;;;5484035;26;20392;-72
2024/04/19 04:20:47;;;;;;;2.95;2.20;;;9.30;90.80;;;;;;5476466;26;19998;-71
2024/04/19 04:23:33;;;;;;;3.05;2.05;;;9.30;90.80;;;;;;5428794;26;20009;-72
2024/04/19 04:26:19;;;;;;;3.05;1.85;;;9.30;90.80;;;;;;5444046;26;19995;-71
2024/04/19 04:29:05;;;;;;;5.10;2.60;;;9.30;90.80;;;;;;5457974;26;20390;-72
2024/04/19 04:31:51;;;;;;;7.85;2.20;;;9.30;90.80;;;;;;5484245;26;19994;-72
2024/04/19 04:34:37;;;;;;;4.13;2.13;;;9.30;90.90;;;;;;5483590;26;20014;-72
2024/04/19 04:37:23;;;;;;;4.88;2.95;;;9.40;90.90;;;;;;5482162;26;20330;-72
2024/04/19 04:40:10;;;;;;;7.25;2.83;;;9.40;90.80;;;;;;5458526;26;20010;-71
2024/04/19 04:42:56;;;;;;;4.18;2.42;;;9.40;90.80;;;;;;5454455;26;19998;-72
2024/04/19 04:45:42;;;;;;;4.13;2.42;;;9.40;90.90;;;;;;5491991;25;19994;-72
2024/04/19 04:48:28;;;;;;;3.67;2.42;;;9.50;90.90;;;;;;5488303;26;20013;-72
2024/04/19 04:51:14;;;;;;;4.65;2.80;;;9.50;90.90;;;;;;5450562;26;20027;-71
2024/04/19 04:54:00;;;;;;;4.28;2.58;;;9.50;90.90;;;;;;5479124;26;20021;-72
2024/04/19 04:56:46;;;;;;;4.97;2.28;;;9.60;90.90;;;;;;5486917;26;20453;-74
2024/04/19 04:59:32;;;;;;;5.80;2.40;;;9.60;90.90;;;;;;5479852;26;20461;-73
2024/04/19 05:02:18;;;;;;;5.30;2.95;;;9.60;90.90;;;;;;5486035;26;19998;-73
2024/04/19 05:05:04;;;;;;;5.78;3.17;;;9.60;90.80;;;;;;5482489;26;20470;-73
2024/04/19 05:07:50;;;;;;;4.63;3.38;;;9.70;90.80;;;;;;5452432;26;19987;-73
2024/04/19 05:10:36;;;;;;;4.05;2.58;;;9.70;90.80;;;;;;5467648;26;20009;-73
2024/04/19 05:13:22;;;;;;;4.85;2.85;;;9.70;90.80;;;;;;5468088;26;19994;-73
2024/04/19 05:16:08;;;;;;;4.85;2.90;;;9.80;90.90;;;;;;5459778;26;20445;-73
2024/04/19 05:18:55;;;;;;;8.07;3.30;;;9.70;90.90;;;;;;5427151;26;19991;-74
2024/04/19 05:21:41;;;;;;;5.57;2.97;;;9.80;90.90;;;;;;5464010;26;20082;-73
2024/04/19 05:24:28;;;;;;;6.53;2.72;;;9.80;91.00;;;;;;5486512;26;20038;-73
2024/04/19 05:27:13;;;;;;;4.22;2.92;;;9.80;91.30;;;;;;5481487;26;20002;-75
2024/04/19 05:30:00;;;;;;;6.45;3.28;;;9.80;91.10;;;;;;5466324;26;20013;-77
2024/04/19 05:32:45;;;;;;;6.63;3.72;;;9.80;91.30;;;;;;5480626;26;20130;-76
2024/04/19 05:35:32;;;;;;;5.22;3.15;;;9.80;91.30;;;;;;5480165;26;21584;-76
2024/04/19 05:38:17;;;;;;;7.57;3.63;;;9.90;91.40;;;;;;5466801;26;19994;-75
2024/04/19 05:41:03;;;;;;;6.22;2.90;;;9.90;91.50;;;;;;5483108;26;20016;-74
2024/04/19 05:43:49;;;;;;;5.32;3.15;;;10.00;91.60;;;;;;5449705;26;20430;-74
2024/04/19 05:46:35;;;;;;;6.28;3.60;;;10.00;91.60;;;;;;5467217;26;20009;-74
2024/04/19 05:49:22;;;;;;;9.32;2.97;;;10.00;91.60;;;;;;5457846;26;20005;-74
2024/04/19 05:52:08;;;;;;;7.97;4.32;;;10.10;91.70;;;;;;5476743;26;20030;-75
2024/04/19 05:54:54;;;;;;;6.15;3.45;;;10.10;91.70;;;;;;5483447;26;20453;-75
2024/04/19 05:57:40;;;;;;;5.40;3.33;;;10.00;91.70;;;;;;5483417;26;20453;-75
2024/04/19 06:00:26;;;;;;;4.45;3.25;;;10.10;91.70;;;;;;5473916;26;20034;-76
2024/04/19 06:03:12;;;;;;;6.65;2.70;;;10.10;91.80;;;;;;5481904;26;20057;-75
2024/04/19 06:05:58;;;;;;;5.18;3.83;;;10.10;91.90;;;;;;5476707;26;20032;-75
2024/04/19 06:08:44;;;;;;;6.30;3.65;;;10.20;92.00;;;;;;5497571;26;20009;-77
2024/04/19 06:11:30;;;;;;;5.28;3.08;;;10.20;92.00;;;;;;5488847;26;19999;-75
2024/04/19 06:14:16;;;;;;;8.90;4.20;;;10.20;91.90;;;;;;5488022;26;19994;-76
2024/04/19 06:17:02;;;;;;;6.80;3.90;;;10.30;92.00;;;;;;5447603;26;20002;-77
2024/04/19 06:19:48;;;;;;;6.47;3.53;;;10.30;92.10;;;;;;5484974;26;19994;-79
2024/04/19 06:22:34;;;;;;;4.55;3.00;;;10.40;92.10;;;;;;5471751;26;20330;-78
2024/04/19 06:25:20;;;;;;;6.97;3.85;;;10.40;92.00;;;;;;5485894;26;20011;-78
2024/04/19 06:28:06;;;;;;;4.50;3.15;;;10.50;91.80;;;;;;5480413;26;19998;-78
2024/04/19 06:30:52;;;;;;;4.25;2.75;;;10.50;91.50;;;;;;5453866;26;20601;-78
2024/04/19 06:33:39;;;;;;;5.95;3.13;;;10.60;91.30;;;;;;5466341;26;20108;-78
2024/04/19 06:36:24;;;;;;;7.60;3.58;;;10.60;91.10;;;;;;5485228;26;20345;-79
2024/04/19 06:39:25;;;;;;;4.72;3.47;;;10.60;91.00;;;;;;5468032;26;20021;-77
2024/04/19 06:42:11;;;;;;;4.45;3.35;;;10.50;91.00;;;;;;5471769;26;19999;-76
2024/04/19 06:44:57;;;;;;;4.82;3.40;;;10.60;91.00;;;;;;5458440;26;20032;-78
2024/04/19 06:47:43;;;;;;;6.13;3.80;;;10.50;90.90;;;;;;5461440;26;20518;-78
2024/04/19 06:50:29;;;;;;;3.83;3.00;;;10.50;90.80;;;;;;5478091;26;20033;-78
2024/04/19 06:53:15;;;;;;;7.85;3.30;;;10.50;90.90;;;;;;5465924;26;19998;-78
2024/04/19 06:56:01;;;;;;;7.38;3.35;;;10.40;90.90;;;;;;5458177;26;20010;-79
2024/04/19 06:58:48;;;;;;;4.78;2.97;;;10.40;91.10;;;;;;5471600;26;20359;-76
2024/04/19 07:01:37;;;;;;;4.53;3.20;;;10.40;91.10;;;;;;5458138;26;20023;-75
2024/04/19 07:04:24;;;;;;;4.93;3.60;;;10.40;91.10;;;;;;5460586;26;19994;-81
2024/04/19 07:07:10;;;;;;;4.78;3.40;;;10.30;91.10;;;;;;5466926;26;20039;-82
2024/04/19 07:09:56;;;;;;;5.82;3.70;;;10.30;91.20;;;;;;5448775;26;19998;-81
2024/04/19 07:12:41;;;;;;;5.25;3.63;;;10.20;91.10;;;;;;5475913;26;20533;-84
2024/04/19 07:15:27;;;;;;;5.70;3.25;;;10.20;91.30;;;;;;5476078;26;20107;-87
2024/04/19 07:18:15;;;;;;;6.65;3.00;;;10.10;91.40;;;;;;5484973;26;19998;-81
2024/04/19 07:21:01;;;;;;;4.10;3.03;;;10.10;91.50;;;;;;5466538;26;20027;-81
2024/04/19 07:23:47;;;;;;;4.32;2.70;;;10.00;91.50;;;;;;5458391;26;20006;-83
2024/04/19 07:26:34;;;;;;;3.90;2.78;;;10.00;91.60;;;;;;5480632;26;20013;-80
2024/04/19 07:29:20;;;;;;;5.03;3.33;;;10.00;91.60;;;;;;5453594;26;19998;-80
2024/04/19 07:32:06;;;;;;;3.35;2.60;;;9.90;91.60;;;;;;5483258;26;20002;-80
2024/04/19 07:34:52;;;;;;;4.93;2.70;;;9.90;91.80;;;;;;5469816;26;20324;-79
2024/04/19 07:37:38;;;;;;;3.47;2.78;;;9.90;91.80;;;;;;5467180;26;20003;-79
2024/04/19 07:40:25;;;;;;;5.13;3.33;;;9.90;91.80;;;;;;5484119;26;19998;-80
2024/04/19 07:43:12;;;;;;;5.55;2.50;;;10.00;91.90;;;;;;5483590;26;20007;-80
2024/04/19 07:45:57;;;;;;;4.22;2.97;;;10.00;92.00;;;;;;5472713;26;20033;-79
2024/04/19 07:48:43;;;;;;;4.20;2.85;;;10.10;92.20;;;;;;5478911;26;20006;-79
2024/04/19 07:51:29;;;;;;;6.90;3.05;;;10.10;92.20;;;;;;5461634;26;20002;-79
2024/04/19 07:54:15;;;;;;;4.93;2.75;;;10.20;92.30;;;;;;5481697;26;20388;-82
2024/04/19 07:57:01;;;;;;;4.25;3.00;;;10.30;92.30;;;;;;5479673;26;20490;-81
2024/04/19 07:59:47;;;;;;;4.47;3.20;;;10.30;92.30;;;;;;5471583;26;20010;-83
2024/04/19 08:02:33;;;;;;;5.65;2.97;;;10.30;92.40;;;;;;5478258;26;19994;-82
2024/04/19 08:05:19;;;;;;;4.30;3.33;;;10.30;92.30;;;;;;5465606;26;20010;-83
2024/04/19 08:08:05;;;;;;;4.90;3.10;;;10.30;92.20;;;;;;5471326;26;20002;-83
2024/04/19 08:10:51;;;;;;;4.78;3.17;;;10.20;92.10;;;;;;5465256;26;20074;-82
2024/04/19 08:13:40;;;;;;;5.25;3.30;;;10.20;92.10;;;;;;5482653;26;20006;-81
2024/04/19 08:16:26;;;;;;;5.05;3.42;;;10.10;92.20;;;;;;5483133;26;20005;-82
2024/04/19 08:19:11;;;;;;;3.88;3.15;;;10.10;92.20;;;;;;5479843;26;20009;-81
2024/04/19 08:21:57;;;;;;;5.57;3.78;;;10.10;92.20;;;;;;5464735;26;20038;-81
2024/04/19 08:24:43;;;;;;;11.23;4.13;;;10.00;92.10;;;;;;5456111;26;20083;-82
2024/04/19 08:27:29;;;;;;;6.55;3.13;;;10.00;92.20;;;;;;5482062;26;20339;-82
2024/04/19 08:30:15;;;;;;;6.38;3.58;;;10.00;92.30;;;;;;5464440;26;20328;-85
2024/04/19 08:33:01;;;;;;;6.03;3.60;;;10.00;92.40;;;;;;5458334;26;20442;-84
2024/04/19 08:35:57;;;;;;;7.32;3.92;;;9.90;92.40;;;;;;5467844;26;19990;-84
2024/04/19 08:38:43;;;;;;;5.10;3.40;;;9.90;92.50;;;;;;5479355;26;20009;-87
2024/04/19 08:41:30;;;;;;;7.03;4.15;;;9.90;92.60;;;;;;5471169;26;19998;-87
2024/04/19 08:44:16;;;;;;;7.05;3.75;;;9.90;92.70;;;;;;5453763;26;20396;-84
2024/04/19 08:47:04;;;;;;;5.65;4.18;;;10.00;92.80;;;;;;5480243;26;20025;-86
2024/04/19 08:49:50;;;;;;;6.70;3.75;;;9.90;93.00;;;;;;5466599;26;20042;-87
2024/04/19 08:52:37;;;;;;;5.55;4.50;;;10.00;93.10;;;;;;5422698;26;20006;-84
2024/04/19 08:55:24;;;;;;;5.97;3.92;;;10.00;93.10;;;;;;5475225;26;20018;-83
2024/04/19 08:58:12;;;;;;;4.75;3.88;;;10.00;93.20;;;;;;5482733;26;20010;-82
2024/04/19 09:01:00;;;;;;;4.85;3.72;;;10.10;93.30;;;;;;5475747;26;20007;-82
2024/04/19 09:03:46;;;;;;;5.15;3.88;;;10.00;93.30;;;;;;5449447;26;19995;-83
2024/04/19 09:06:33;;;;;;;8.57;4.20;;;10.10;93.40;;;;;;5469674;26;20005;-83
2024/04/19 09:09:20;;;;;;;6.20;3.97;;;10.10;93.50;;;;;;5484640;26;20010;-84
2024/04/19 09:12:08;;;;;;;6.47;4.47;;;10.20;93.60;;;;;;5473547;26;20005;-83
2024/04/19 09:14:54;;;;;;;7.32;3.85;;;10.30;93.60;;;;;;5493403;25;20016;-81
2024/04/19 09:17:40;;;;;;;6.47;3.70;;;10.30;93.60;;;;;;5509847;25;20034;-83
2024/04/19 09:20:26;;;;;;;5.43;4.10;;;10.30;93.60;;;;;;5475574;26;19982;-82
2024/04/19 09:23:12;;;;;;;6.13;4.18;;;10.40;93.70;;;;;;5487509;25;20143;-84
2024/04/19 09:25:59;;;;;;;5.47;4.28;;;10.40;93.70;;;;;;5485399;25;20074;-84
2024/04/19 09:28:46;;;;;;;5.50;3.95;;;10.50;93.80;;;;;;5472031;26;19995;-84
2024/04/19 09:31:32;;;;;;;5.47;4.22;;;10.40;93.80;;;;;;5484088;26;20466;-82
2024/04/19 09:34:18;;;;;;;12.05;4.60;;;10.50;93.90;;;;;;5472332;26;19998;-70
2024/04/19 09:37:04;;;;;;;6.90;3.63;;;10.50;94.00;;;;;;5481091;26;20006;-71
2024/04/19 09:39:50;;;;;;;5.57;4.03;;;10.50;94.00;;;;;;5481466;26;20002;-70
2024/04/19 09:42:38;;;;;;;9.65;4.70;;;10.60;94.10;;;;;;5452299;26;20019;-70
2024/04/19 09:45:25;;;;;;;5.20;3.72;;;10.60;94.10;;;;;;5475536;26;19994;-71
2024/04/19 09:48:13;;;;;;;6.22;4.45;;;10.60;94.20;;;;;;5480930;26;20001;-71
2024/04/19 09:51:03;;;;;;;5.00;3.85;;;10.60;94.20;;;;;;5470742;26;20013;-71
2024/04/19 09:53:55;;;;;;;8.65;3.88;;;10.60;94.30;;;;;;5484915;26;20010;-71
2024/04/19 09:56:57;;;;;;;4.28;3.03;;;10.60;94.30;;;;;;5474429;26;20010;-70
2024/04/19 09:59:44;;;;;;;8.82;3.38;;;10.70;94.20;;;;;;5476507;26;19998;-70
2024/04/19 10:02:30;;;;;;;4.68;3.35;;;10.80;94.30;;;;;;5481362;26;20006;-71
2024/04/19 10:05:17;;;;;;;4.70;3.53;;;10.70;94.30;;;;;;5482451;26;20013;-71
2024/04/19 10:08:04;;;;;;;3.95;3.17;;;10.70;94.40;;;;;;5473545;26;20066;-71
2024/04/19 10:10:51;;;;;;;4.93;3.47;;;10.70;94.40;;;;;;5485727;26;20026;-70
2024/04/19 10:13:37;;;;;;;6.40;3.60;;;10.70;94.40;;;;;;5457720;26;20010;-70
2024/04/19 10:16:23;;;;;;;5.40;3.78;;;10.80;94.50;;;;;;5483268;26;20013;-70
2024/04/19 10:19:12;;;;;;;3.35;2.63;;;10.80;94.40;;;;;;5468863;26;20006;-70
2024/04/19 10:22:02;;;;;;;3.35;2.63;;;10.80;94.40;;;;;;5452624;26;20013;-70
2024/04/19 10:25:00;;;;;;;5.03;3.33;;;10.80;94.40;;;;;;5464655;26;19994;-70
2024/04/19 10:27:46;;;;;;;6.32;3.50;;;10.80;94.50;;;;;;5470327;26;20014;-70
2024/04/19 10:30:33;;;;;;;5.47;3.03;;;10.70;94.40;;;;;;5465593;26;20486;-70
2024/04/19 10:33:20;;;;;;;3.95;3.05;;;10.70;94.40;;;;;;5476211;26;20430;-70
2024/04/19 10:36:10;;;;;;;4.65;3.25;;;10.70;94.40;;;;;;5469837;26;20012;-70
2024/04/19 10:38:59;;;;;;;3.47;2.40;;;10.70;94.40;;;;;;5458691;26;20023;-70
2024/04/19 10:41:47;;;;;;;3.63;2.50;;;10.70;94.40;;;;;;5469068;26;19998;-70
2024/04/19 10:44:38;;;;;;;3.20;2.40;;;10.70;94.30;;;;;;5449401;26;19999;-71
2024/04/19 10:47:24;;;;;;;4.75;2.45;;;10.70;94.30;;;;;;5483845;26;20002;-70
2024/04/19 10:50:10;;;;;;;2.85;2.03;;;10.70;94.20;;;;;;5480889;26;19994;-70
2024/04/19 10:52:57;;;;;;;3.55;2.47;;;10.70;94.30;;;;;;5476127;26;20006;-70
2024/04/19 10:55:45;;;;;;;4.57;3.08;;;10.70;94.30;;;;;;5475667;26;20050;-70
2024/04/19 10:58:31;;;;;;;4.82;2.97;;;10.80;94.30;;;;;;5445332;26;20022;-70
2024/04/19 11:01:17;;;;;;;4.18;2.72;;;10.70;94.30;;;;;;5486008;26;20011;-70
2024/04/19 11:04:04;;;;;;;4.60;3.13;;;10.70;94.30;;;;;;5481383;26;20442;-70
2024/04/19 11:06:50;;;;;;;3.55;2.30;;;10.80;94.40;;;;;;5477626;26;19991;-70
2024/04/19 11:09:36;;;;;;;3.47;2.20;;;10.70;94.40;;;;;;5462253;26;19995;-70
2024/04/19 11:12:23;;;;;;;2.55;2.10;;;10.80;94.40;;;;;;5482609;26;20001;-70
2024/04/19 11:15:09;;;;;;;2.85;2.35;;;10.80;94.40;;;;;;5478480;26;20526;-70
2024/04/19 11:17:55;;;;;;;2.72;1.88;;;10.80;94.40;;;;;;5479422;26;20019;-70
2024/04/19 11:20:41;;;;;;;4.65;2.75;;;10.70;94.30;;;;;;5471301;26;20026;-70
2024/04/19 11:23:27;;;;;;;3.30;2.08;;;10.70;94.30;;;;;;5472981;26;19994;-70
2024/04/19 11:26:16;;;;;;;2.60;1.70;;;10.70;94.30;;;;;;5467250;26;20002;-69
2024/04/19 11:29:02;;;;;;;3.13;2.08;;;10.60;94.20;;;;;;5467572;26;20371;-70
2024/04/19 11:31:48;;;;;;;1.67;1.30;;;10.60;94.20;;;;;;5477192;26;20425;-70
2024/04/19 11:34:35;;;;;;;1.38;1.15;;;10.60;94.20;;;;;;5479022;26;20005;-70
2024/04/19 11:37:21;;;;;;;1.80;1.15;;;10.60;94.10;;;;;;5481969;26;20017;-70
2024/04/19 11:40:20;;;;;;;2.33;1.27;;;10.50;94.10;;;;;;5480913;26;20014;-69
2024/04/19 11:43:06;;;;;;;3.47;1.23;;;10.40;94.00;;;;;;5466928;26;20026;-70
2024/04/19 11:45:52;;;;;;;4.57;1.42;;;10.40;94.00;;;;;;5464879;26;20462;-76
2024/04/19 11:48:38;;;;;;;2.92;1.50;;;10.30;94.20;;;;;;5461946;26;20497;-75
2024/04/19 11:51:25;;;;;;;2.97;1.80;;;10.20;94.20;;;;;;5467793;26;20038;-74
2024/04/19 11:54:12;;;;;;;4.72;1.92;;;10.20;94.40;;;;;;5479162;26;20446;-76
2024/04/19 11:57:00;;;;;;;4.63;1.88;;;10.10;94.50;;;;;;5479642;26;19991;-76
2024/04/19 11:59:46;;;;;;;3.15;1.65;;;10.10;94.60;;;;;;5487326;26;20074;-76
2024/04/19 12:02:32;;;;;;;2.25;1.35;;;10.10;94.70;;;;;;5477900;26;20010;-76
2024/04/19 12:05:18;;;;;;;3.55;1.40;;;10.10;94.80;;;;;;5477626;26;20013;-77
2024/04/19 12:08:05;;;;;;;2.05;1.50;;;10.00;94.90;;;;;;5471687;26;20028;-73
2024/04/19 12:10:51;;;;;;;2.50;1.35;;;10.00;95.00;;;;;;5468773;26;20020;-74
2024/04/19 12:13:37;;;;;;;2.85;1.10;;;10.00;95.00;;;;;;5449997;26;20079;-78
2024/04/19 12:16:23;;;;;;;2.00;1.27;;;10.00;95.10;;;;;;5481260;26;20070;-74
2024/04/19 12:19:09;;;;;;;2.13;1.30;;;10.00;95.40;;;;;;5472099;26;20006;-70
2024/04/19 12:21:55;;;;;;;2.85;1.63;;;10.00;95.20;;;;;;5480329;26;20009;-68
2024/04/19 12:24:41;;;;;;;3.85;2.00;;;10.00;95.30;;;;;;5478302;26;19994;-71
2024/04/19 12:27:27;;;;;;;7.63;2.70;;;10.00;95.30;;;;;;5478868;26;19994;-70
2024/04/19 12:30:14;;;;;;;3.83;2.55;;;10.00;95.30;;;;;;5481682;26;20020;-70
2024/04/19 12:33:00;;;;;;;3.50;2.30;;;9.90;95.40;;;;;;5454595;26;20013;-71
2024/04/19 12:35:46;;;;;;;3.63;2.33;;;10.00;95.50;;;;;;5476764;26;20462;-72
2024/04/19 12:38:32;;;;;;;4.25;1.80;;;9.90;95.50;;;;;;5477645;26;20323;-70
2024/04/19 12:41:18;;;;;;;2.65;1.73;;;9.90;95.60;;;;;;5453338;26;20002;-70
2024/04/19 12:44:04;;;;;;;3.13;2.00;;;9.90;95.60;;;;;;5475359;26;19998;-71
2024/04/19 12:46:50;;;;;;;4.80;3.13;;;9.90;95.60;;;;;;5481913;26;20070;-71
2024/04/19 12:49:36;;;;;;;4.93;2.40;;;9.90;95.70;;;;;;5473108;26;20009;-71
2024/04/19 12:52:22;;;;;;;4.93;2.50;;;9.90;95.90;;;;;;5477184;26;20466;-71
2024/04/19 12:55:08;;;;;;;3.00;1.80;;;10.00;95.90;;;;;;5454670;26;20007;-71
2024/04/19 12:57:54;;;;;;;2.90;1.73;;;10.00;95.90;;;;;;5488315;26;20006;-71
2024/04/19 13:00:40;;;;;;;2.70;1.50;;;10.10;96.00;;;;;;5479360;26;20074;-71
2024/04/19 13:03:26;;;;;;;3.40;1.98;;;10.20;96.10;;;;;;5471976;26;20507;-71
2024/04/19 13:06:12;;;;;;;2.70;1.42;;;10.30;96.20;;;;;;5464930;26;20010;-71
2024/04/19 13:08:58;;;;;;;3.58;2.20;;;10.40;96.20;;;;;;5481945;26;20016;-71
2024/04/19 13:11:44;;;;;;;4.75;2.63;;;10.40;96.10;;;;;;5483452;26;20012;-71
2024/04/19 13:14:30;;;;;;;4.78;2.67;;;10.50;96.20;;;;;;5481724;26;20065;-70
2024/04/19 13:17:16;;;;;;;4.30;2.20;;;10.60;96.20;;;;;;5483970;26;20012;-70
2024/04/19 13:20:02;;;;;;;4.82;2.10;;;10.60;96.10;;;;;;5480877;26;19998;-71
2024/04/19 13:22:48;;;;;;;4.63;2.78;;;10.60;96.00;;;;;;5486365;26;19991;-70
2024/04/19 13:25:34;;;;;;;4.57;2.50;;;10.70;96.00;;;;;;5474129;26;20336;-70
2024/04/19 13:28:19;;;;;;;5.47;2.60;;;10.70;95.90;;;;;;5469915;26;20030;-70
2024/04/19 13:31:06;;;;;;;3.65;1.90;;;10.70;95.90;;;;;;5475863;26;20341;-70
2024/04/19 13:33:52;;;;;;;3.30;1.83;;;10.80;95.90;;;;;;5472107;26;20002;-71
2024/04/19 13:36:38;;;;;;;3.30;1.70;;;10.80;95.90;;;;;;5467521;26;20520;-70
2024/04/19 13:39:25;;;;;;;4.55;2.13;;;10.80;96.00;;;;;;5479951;26;20008;-70
2024/04/19 13:42:11;;;;;;;3.15;2.05;;;10.90;96.00;;;;;;5476463;26;20022;-70
2024/04/19 13:44:57;;;;;;;4.30;2.50;;;11.00;96.00;;;;;;5458556;26;20009;-70
2024/04/19 13:47:44;;;;;;;3.47;2.30;;;10.90;96.00;;;;;;5470678;26;20021;-70
2024/04/19 13:50:29;;;;;;;2.85;2.20;;;11.00;96.10;;;;;;5483771;26;19990;-70
2024/04/19 13:53:15;;;;;;;3.33;2.00;;;11.00;96.00;;;;;;5481571;26;20012;-69
2024/04/19 13:56:05;;;;;;;3.25;2.10;;;11.00;96.10;;;;;;5480096;26;20057;-70
2024/04/19 13:58:51;;;;;;;3.35;1.92;;;11.00;96.10;;;;;;5470476;26;20036;-69
2024/04/19 14:01:37;;;;;;;2.03;1.63;;;11.10;96.30;;;;;;5462813;26;19995;-69
2024/04/19 14:04:23;;;;;;;2.72;1.60;;;11.30;96.40;;;;;;5480656;26;20010;-69
2024/04/19 14:07:09;;;;;;;2.78;1.70;;;11.40;96.30;;;;;;5481740;26;20014;-69
2024/04/19 14:09:55;;;;;;;3.03;2.00;;;11.50;96.30;;;;;;5470856;26;20013;-70
2024/04/19 14:12:48;;;;;;;2.38;1.80;;;11.60;96.30;;;;;;5467081;26;20001;-69
2024/04/19 14:15:37;;;;;;;2.88;1.77;;;11.80;96.30;;;;;;5483935;26;20365;-70
2024/04/19 14:18:22;;;;;;;2.47;1.73;;;11.80;96.30;;;;;;5464576;26;19994;-70
2024/04/19 14:21:09;;;;;;;2.13;1.58;;;11.90;96.30;;;;;;5468130;26;20003;-69
2024/04/19 14:23:55;;;;;;;2.47;1.60;;;12.10;96.30;;;;;;5480652;26;20108;-69
2024/04/19 14:26:43;;;;;;;2.67;1.80;;;12.20;96.40;;;;;;5484353;26;19994;-70
2024/04/19 14:29:29;;;;;;;3.65;2.10;;;12.40;96.20;;;;;;5470059;26;21990;-70
2024/04/19 14:32:15;;;;;;;3.38;1.77;;;12.40;96.00;;;;;;5486255;26;20263;-70
2024/04/19 14:35:01;;;;;;;3.33;1.70;;;12.40;95.90;;;;;;5473407;26;19995;-70
2024/04/19 14:37:47;;;;;;;3.90;2.10;;;12.50;95.70;;;;;;5484018;26;20439;-70